sensor_id;sensor_type;location;lat;lon;timestamp;noise_LAeq;noise_LA_min;noise_LA_max;noise_LA01;noise_LA95
43938;Laerm;71382;47.750;10.226;2023-10-31T00:00:20;41.22;33.81;64.77;;
43938;Laerm;71382;47.750;10.226;2023-10-31T00:02:45;41.12;33.18;64.94;;
43938;Laerm;71382;47.750;10.226;2023-10-31T00:05:11;49.66;33.16;66.52;;
43938;Laerm;71382;47.750;10.226;2023-10-31T00:07:36;40.21;32.54;63.36;;
43938;Laerm;71382;47.750;10.226;2023-10-31T00:10:02;38.32;32.06;58.33;;
43938;Laerm;71382;47.750;10.226;2023-10-31T00:12:27;38.99;32.37;60.64;;
43938;Laerm;71382;47.750;10.226;2023-10-31T00:14:53;43.60;31.90;66.30;;
43938;Laerm;71382;47.750;10.226;2023-10-31T00:17:18;35.95;32.03;54.58;;
43938;Laerm;71382;47.750;10.226;2023-10-31T00:19:44;42.76;32.57;61.33;;
43938;Laerm;71382;47.750;10.226;2023-10-31T00:22:09;43.07;32.49;61.99;;
43938;Laerm;71382;47.750;10.226;2023-10-31T00:24:35;37.26;32.13;56.36;;
43938;Laerm;71382;47.750;10.226;2023-10-31T00:27:00;42.29;32.34;63.34;;
43938;Laerm;71382;47.750;10.226;2023-10-31T00:29:26;41.39;32.59;66.22;;
43938;Laerm;71382;47.750;10.226;2023-10-31T00:31:51;34.94;32.42;49.52;;
43938;Laerm;71382;47.750;10.226;2023-10-31T00:34:17;39.38;32.14;53.17;;
43938;Laerm;71382;47.750;10.226;2023-10-31T00:36:43;41.63;32.23;59.53;;
43938;Laerm;71382;47.750;10.226;2023-10-31T00:39:08;40.25;31.77;59.55;;
43938;Laerm;71382;47.750;10.226;2023-10-31T00:41:34;42.12;32.02;57.95;;
43938;Laerm;71382;47.750;10.226;2023-10-31T00:44:00;42.15;32.09;62.05;;
43938;Laerm;71382;47.750;10.226;2023-10-31T00:46:25;34.92;31.76;49.69;;
43938;Laerm;71382;47.750;10.226;2023-10-31T00:48:51;40.05;31.76;57.52;;
43938;Laerm;71382;47.750;10.226;2023-10-31T00:51:16;36.26;31.21;52.74;;
43938;Laerm;71382;47.750;10.226;2023-10-31T00:53:42;37.79;31.78;54.95;;
43938;Laerm;71382;47.750;10.226;2023-10-31T00:56:08;38.45;32.31;59.46;;
43938;Laerm;71382;47.750;10.226;2023-10-31T00:58:33;36.32;32.69;51.34;;
43938;Laerm;71382;47.750;10.226;2023-10-31T01:00:59;35.35;33.33;46.40;;
43938;Laerm;71382;47.750;10.226;2023-10-31T01:03:25;39.10;32.39;55.96;;
43938;Laerm;71382;47.750;10.226;2023-10-31T01:05:50;39.86;32.07;57.06;;
43938;Laerm;71382;47.750;10.226;2023-10-31T01:08:16;37.89;31.55;55.13;;
43938;Laerm;71382;47.750;10.226;2023-10-31T01:10:41;36.51;31.94;55.35;;
43938;Laerm;71382;47.750;10.226;2023-10-31T01:13:07;44.32;31.85;68.65;;
43938;Laerm;71382;47.750;10.226;2023-10-31T01:15:33;48.28;32.02;67.67;;
43938;Laerm;71382;47.750;10.226;2023-10-31T01:17:58;38.99;31.84;55.65;;
43938;Laerm;71382;47.750;10.226;2023-10-31T01:20:24;47.33;32.09;67.00;;
43938;Laerm;71382;47.750;10.226;2023-10-31T01:22:49;48.93;31.58;69.21;;
43938;Laerm;71382;47.750;10.226;2023-10-31T01:25:15;37.67;31.00;62.94;;
43938;Laerm;71382;47.750;10.226;2023-10-31T01:27:40;44.61;32.86;60.22;;
43938;Laerm;71382;47.750;10.226;2023-10-31T01:30:07;40.93;33.89;63.60;;
43938;Laerm;71382;47.750;10.226;2023-10-31T01:32:33;39.89;31.70;58.96;;
43938;Laerm;71382;47.750;10.226;2023-10-31T01:34:58;45.68;31.67;62.05;;
43938;Laerm;71382;47.750;10.226;2023-10-31T01:37:24;41.11;31.64;57.92;;
43938;Laerm;71382;47.750;10.226;2023-10-31T01:39:49;39.87;32.49;58.67;;
43938;Laerm;71382;47.750;10.226;2023-10-31T01:42:15;44.02;31.77;65.79;;
43938;Laerm;71382;47.750;10.226;2023-10-31T01:44:41;39.51;31.56;57.33;;
43938;Laerm;71382;47.750;10.226;2023-10-31T01:47:07;46.65;32.43;68.01;;
43938;Laerm;71382;47.750;10.226;2023-10-31T01:49:32;42.88;32.23;61.04;;
43938;Laerm;71382;47.750;10.226;2023-10-31T01:52:01;48.78;32.53;68.68;;
43938;Laerm;71382;47.750;10.226;2023-10-31T01:54:27;43.63;32.41;60.91;;
43938;Laerm;71382;47.750;10.226;2023-10-31T01:56:54;43.63;33.63;59.81;;
43938;Laerm;71382;47.750;10.226;2023-10-31T01:59:21;54.48;33.69;72.63;;
43938;Laerm;71382;47.750;10.226;2023-10-31T02:01:47;39.30;33.22;56.95;;
43938;Laerm;71382;47.750;10.226;2023-10-31T02:04:13;52.66;33.71;70.52;;
43938;Laerm;71382;47.750;10.226;2023-10-31T02:06:39;47.75;33.72;65.57;;
43938;Laerm;71382;47.750;10.226;2023-10-31T02:09:04;49.78;33.14;72.26;;
43938;Laerm;71382;47.750;10.226;2023-10-31T02:11:30;52.50;32.78;72.20;;
43938;Laerm;71382;47.750;10.226;2023-10-31T02:13:55;52.32;33.70;70.31;;
43938;Laerm;71382;47.750;10.226;2023-10-31T02:16:21;49.42;34.53;67.05;;
43938;Laerm;71382;47.750;10.226;2023-10-31T02:18:46;42.76;34.52;59.59;;
43938;Laerm;71382;47.750;10.226;2023-10-31T02:21:12;53.87;34.71;73.02;;
43938;Laerm;71382;47.750;10.226;2023-10-31T02:23:38;47.62;34.85;65.40;;
43938;Laerm;71382;47.750;10.226;2023-10-31T02:26:03;51.89;34.99;71.85;;
43938;Laerm;71382;47.750;10.226;2023-10-31T02:28:29;52.05;33.56;72.51;;
43938;Laerm;71382;47.750;10.226;2023-10-31T02:30:56;52.26;34.12;70.69;;
43938;Laerm;71382;47.750;10.226;2023-10-31T02:33:21;42.71;34.23;61.12;;
43938;Laerm;71382;47.750;10.226;2023-10-31T02:35:47;47.14;35.37;64.47;;
43938;Laerm;71382;47.750;10.226;2023-10-31T02:38:13;52.92;35.17;73.96;;
43938;Laerm;71382;47.750;10.226;2023-10-31T02:40:39;55.37;35.82;77.59;;
43938;Laerm;71382;47.750;10.226;2023-10-31T02:43:04;47.60;35.14;67.59;;
43938;Laerm;71382;47.750;10.226;2023-10-31T02:45:29;48.95;35.54;67.85;;
43938;Laerm;71382;47.750;10.226;2023-10-31T02:47:55;49.53;35.14;68.46;;
43938;Laerm;71382;47.750;10.226;2023-10-31T02:50:21;44.39;34.97;61.19;;
43938;Laerm;71382;47.750;10.226;2023-10-31T02:52:46;45.79;34.92;64.25;;
43938;Laerm;71382;47.750;10.226;2023-10-31T02:55:12;49.02;36.04;67.68;;
43938;Laerm;71382;47.750;10.226;2023-10-31T02:57:38;52.34;34.08;68.50;;
43938;Laerm;71382;47.750;10.226;2023-10-31T03:00:03;48.33;34.37;68.68;;
43938;Laerm;71382;47.750;10.226;2023-10-31T03:02:29;47.84;33.27;66.79;;
43938;Laerm;71382;47.750;10.226;2023-10-31T03:04:55;47.34;33.18;68.72;;
43938;Laerm;71382;47.750;10.226;2023-10-31T03:07:20;49.53;33.78;65.77;;
43938;Laerm;71382;47.750;10.226;2023-10-31T03:09:47;46.95;32.65;68.20;;
43938;Laerm;71382;47.750;10.226;2023-10-31T03:12:13;46.78;33.85;65.25;;
43938;Laerm;71382;47.750;10.226;2023-10-31T03:14:38;45.46;32.88;64.54;;
43938;Laerm;71382;47.750;10.226;2023-10-31T03:17:04;37.01;32.49;53.94;;
43938;Laerm;71382;47.750;10.226;2023-10-31T03:19:30;50.05;34.31;71.37;;
43938;Laerm;71382;47.750;10.226;2023-10-31T03:21:55;51.65;32.82;72.04;;
43938;Laerm;71382;47.750;10.226;2023-10-31T03:24:21;41.89;32.05;58.68;;
43938;Laerm;71382;47.750;10.226;2023-10-31T03:26:46;43.12;32.02;61.95;;
43938;Laerm;71382;47.750;10.226;2023-10-31T03:29:12;42.14;31.52;61.94;;
43938;Laerm;71382;47.750;10.226;2023-10-31T03:31:38;44.76;32.55;64.41;;
43938;Laerm;71382;47.750;10.226;2023-10-31T03:34:03;44.53;33.21;65.41;;
43938;Laerm;71382;47.750;10.226;2023-10-31T03:36:29;44.62;32.32;62.76;;
43938;Laerm;71382;47.750;10.226;2023-10-31T03:38:56;45.49;32.03;61.83;;
43938;Laerm;71382;47.750;10.226;2023-10-31T03:41:21;34.87;31.60;53.76;;
43938;Laerm;71382;47.750;10.226;2023-10-31T03:43:49;56.77;33.56;76.23;;
43938;Laerm;71382;47.750;10.226;2023-10-31T03:46:14;44.97;32.77;63.99;;
43938;Laerm;71382;47.750;10.226;2023-10-31T03:48:40;40.55;32.58;62.94;;
43938;Laerm;71382;47.750;10.226;2023-10-31T03:51:06;41.39;32.50;59.55;;
43938;Laerm;71382;47.750;10.226;2023-10-31T03:53:32;49.15;31.93;67.73;;
43938;Laerm;71382;47.750;10.226;2023-10-31T03:55:58;39.82;31.98;56.63;;
43938;Laerm;71382;47.750;10.226;2023-10-31T03:58:24;37.25;31.64;51.32;;
43938;Laerm;71382;47.750;10.226;2023-10-31T04:00:49;41.53;31.91;55.96;;
43938;Laerm;71382;47.750;10.226;2023-10-31T04:03:15;36.94;31.76;56.97;;
43938;Laerm;71382;47.750;10.226;2023-10-31T04:05:41;38.00;31.47;55.14;;
43938;Laerm;71382;47.750;10.226;2023-10-31T04:08:06;40.31;31.93;52.43;;
43938;Laerm;71382;47.750;10.226;2023-10-31T04:10:32;41.99;31.59;57.89;;
43938;Laerm;71382;47.750;10.226;2023-10-31T04:12:57;38.10;32.10;52.18;;
43938;Laerm;71382;47.750;10.226;2023-10-31T04:15:23;51.25;32.59;72.18;;
43938;Laerm;71382;47.750;10.226;2023-10-31T04:17:48;44.79;32.88;60.53;;
43938;Laerm;71382;47.750;10.226;2023-10-31T04:20:14;42.11;32.28;53.87;;
43938;Laerm;71382;47.750;10.226;2023-10-31T04:22:40;47.07;32.02;67.36;;
43938;Laerm;71382;47.750;10.226;2023-10-31T04:25:05;37.68;31.73;49.89;;
43938;Laerm;71382;47.750;10.226;2023-10-31T04:27:31;42.97;32.64;61.17;;
43938;Laerm;71382;47.750;10.226;2023-10-31T04:29:56;46.83;33.02;66.25;;
43938;Laerm;71382;47.750;10.226;2023-10-31T04:32:22;43.85;34.40;63.12;;
43938;Laerm;71382;47.750;10.226;2023-10-31T04:34:47;49.88;34.35;74.66;;
43938;Laerm;71382;47.750;10.226;2023-10-31T04:37:13;44.63;32.84;64.78;;
43938;Laerm;71382;47.750;10.226;2023-10-31T04:39:39;43.09;33.88;57.61;;
43938;Laerm;71382;47.750;10.226;2023-10-31T04:42:04;42.90;33.91;55.72;;
43938;Laerm;71382;47.750;10.226;2023-10-31T04:44:30;47.56;35.05;63.86;;
43938;Laerm;71382;47.750;10.226;2023-10-31T04:46:55;47.14;34.94;61.03;;
43938;Laerm;71382;47.750;10.226;2023-10-31T04:49:20;51.66;35.65;70.33;;
43938;Laerm;71382;47.750;10.226;2023-10-31T04:51:47;51.81;35.57;73.66;;
43938;Laerm;71382;47.750;10.226;2023-10-31T04:54:13;48.59;36.37;66.75;;
43938;Laerm;71382;47.750;10.226;2023-10-31T04:56:38;45.73;35.82;65.10;;
43938;Laerm;71382;47.750;10.226;2023-10-31T04:59:04;51.12;38.39;69.02;;
43938;Laerm;71382;47.750;10.226;2023-10-31T05:01:30;47.99;37.32;65.13;;
43938;Laerm;71382;47.750;10.226;2023-10-31T05:03:56;44.81;35.19;64.42;;
43938;Laerm;71382;47.750;10.226;2023-10-31T05:06:21;47.61;35.00;67.20;;
43938;Laerm;71382;47.750;10.226;2023-10-31T05:08:48;49.85;35.00;68.97;;
43938;Laerm;71382;47.750;10.226;2023-10-31T05:11:13;42.65;35.15;61.23;;
43938;Laerm;71382;47.750;10.226;2023-10-31T05:13:41;48.45;35.49;67.61;;
43938;Laerm;71382;47.750;10.226;2023-10-31T05:16:07;52.17;39.00;73.29;;
43938;Laerm;71382;47.750;10.226;2023-10-31T05:18:32;54.36;40.16;74.51;;
43938;Laerm;71382;47.750;10.226;2023-10-31T05:20:58;47.25;40.43;62.60;;
43938;Laerm;71382;47.750;10.226;2023-10-31T05:23:23;48.84;41.24;63.98;;
43938;Laerm;71382;47.750;10.226;2023-10-31T05:25:49;49.90;42.01;67.95;;
43938;Laerm;71382;47.750;10.226;2023-10-31T05:28:14;51.23;42.02;68.01;;
43938;Laerm;71382;47.750;10.226;2023-10-31T05:30:40;55.81;41.79;71.07;;
43938;Laerm;71382;47.750;10.226;2023-10-31T05:33:05;54.52;41.15;75.21;;
43938;Laerm;71382;47.750;10.226;2023-10-31T05:35:31;46.35;41.40;55.06;;
43938;Laerm;71382;47.750;10.226;2023-10-31T05:37:56;47.30;39.70;64.60;;
43938;Laerm;71382;47.750;10.226;2023-10-31T05:40:22;49.28;40.72;63.39;;
43938;Laerm;71382;47.750;10.226;2023-10-31T05:42:50;55.03;41.92;71.81;;
43938;Laerm;71382;47.750;10.226;2023-10-31T05:45:15;51.56;41.77;69.41;;
43938;Laerm;71382;47.750;10.226;2023-10-31T05:47:41;59.47;40.47;77.15;;
43938;Laerm;71382;47.750;10.226;2023-10-31T05:50:06;61.48;41.06;85.30;;
43938;Laerm;71382;47.750;10.226;2023-10-31T05:52:32;54.12;42.99;72.00;;
43938;Laerm;71382;47.750;10.226;2023-10-31T05:54:58;51.14;41.92;62.83;;
43938;Laerm;71382;47.750;10.226;2023-10-31T05:57:24;55.99;41.62;76.58;;
43938;Laerm;71382;47.750;10.226;2023-10-31T05:59:49;50.79;41.00;66.61;;
43938;Laerm;71382;47.750;10.226;2023-10-31T06:02:15;53.89;41.26;75.30;;
43938;Laerm;71382;47.750;10.226;2023-10-31T06:04:40;54.34;43.36;76.42;;
43938;Laerm;71382;47.750;10.226;2023-10-31T06:07:06;49.98;45.96;58.50;;
43938;Laerm;71382;47.750;10.226;2023-10-31T06:09:32;54.66;46.65;72.55;;
43938;Laerm;71382;47.750;10.226;2023-10-31T06:11:59;50.95;47.22;57.45;;
43938;Laerm;71382;47.750;10.226;2023-10-31T06:14:24;52.66;46.73;66.48;;
43938;Laerm;71382;47.750;10.226;2023-10-31T06:16:50;53.11;46.10;69.60;;
43938;Laerm;71382;47.750;10.226;2023-10-31T06:19:16;50.94;42.24;63.73;;
43938;Laerm;71382;47.750;10.226;2023-10-31T06:21:41;47.63;41.53;65.48;;
43938;Laerm;71382;47.750;10.226;2023-10-31T06:24:07;50.11;42.02;62.34;;
43938;Laerm;71382;47.750;10.226;2023-10-31T06:26:33;52.63;40.46;72.71;;
43938;Laerm;71382;47.750;10.226;2023-10-31T06:28:58;49.97;40.66;65.98;;
43938;Laerm;71382;47.750;10.226;2023-10-31T06:31:24;50.60;42.09;62.46;;
43938;Laerm;71382;47.750;10.226;2023-10-31T06:33:49;49.34;42.10;59.58;;
43938;Laerm;71382;47.750;10.226;2023-10-31T06:36:15;47.26;40.95;56.60;;
43938;Laerm;71382;47.750;10.226;2023-10-31T06:38:40;47.31;40.61;58.97;;
43938;Laerm;71382;47.750;10.226;2023-10-31T06:41:06;52.41;41.98;75.24;;
43938;Laerm;71382;47.750;10.226;2023-10-31T06:43:32;49.93;42.74;69.57;;
43938;Laerm;71382;47.750;10.226;2023-10-31T06:45:58;48.02;41.11;65.64;;
43938;Laerm;71382;47.750;10.226;2023-10-31T06:48:25;47.27;40.78;54.60;;
43938;Laerm;71382;47.750;10.226;2023-10-31T06:50:51;47.98;40.15;63.55;;
43938;Laerm;71382;47.750;10.226;2023-10-31T06:53:16;46.00;39.66;54.87;;
43938;Laerm;71382;47.750;10.226;2023-10-31T06:55:42;46.28;38.61;54.13;;
43938;Laerm;71382;47.750;10.226;2023-10-31T06:58:07;46.97;39.09;56.77;;
43938;Laerm;71382;47.750;10.226;2023-10-31T07:00:33;51.22;41.21;74.07;;
43938;Laerm;71382;47.750;10.226;2023-10-31T07:02:59;49.25;41.63;65.43;;
43938;Laerm;71382;47.750;10.226;2023-10-31T07:05:30;47.39;40.09;54.19;;
43938;Laerm;71382;47.750;10.226;2023-10-31T07:07:55;48.28;37.37;59.87;;
43938;Laerm;71382;47.750;10.226;2023-10-31T07:10:21;44.12;37.28;58.86;;
43938;Laerm;71382;47.750;10.226;2023-10-31T07:12:47;43.64;38.08;52.63;;
43938;Laerm;71382;47.750;10.226;2023-10-31T07:15:12;48.29;38.72;61.74;;
43938;Laerm;71382;47.750;10.226;2023-10-31T07:17:38;47.14;40.97;62.08;;
43938;Laerm;71382;47.750;10.226;2023-10-31T07:20:04;47.83;41.03;65.79;;
43938;Laerm;71382;47.750;10.226;2023-10-31T07:22:30;46.48;40.82;56.67;;
43938;Laerm;71382;47.750;10.226;2023-10-31T07:24:56;47.02;40.25;61.45;;
43938;Laerm;71382;47.750;10.226;2023-10-31T07:27:23;46.65;40.47;55.51;;
43938;Laerm;71382;47.750;10.226;2023-10-31T07:29:48;49.09;40.22;62.05;;
43938;Laerm;71382;47.750;10.226;2023-10-31T07:32:14;49.26;41.35;65.77;;
43938;Laerm;71382;47.750;10.226;2023-10-31T07:34:40;47.11;40.85;57.80;;
43938;Laerm;71382;47.750;10.226;2023-10-31T07:37:07;47.33;41.46;56.28;;
43938;Laerm;71382;47.750;10.226;2023-10-31T07:39:32;46.79;41.47;52.76;;
43938;Laerm;71382;47.750;10.226;2023-10-31T07:41:58;50.76;41.37;62.49;;
43938;Laerm;71382;47.750;10.226;2023-10-31T07:44:23;49.37;41.14;60.80;;
43938;Laerm;71382;47.750;10.226;2023-10-31T07:46:49;47.48;40.29;56.53;;
43938;Laerm;71382;47.750;10.226;2023-10-31T07:49:14;49.09;40.51;60.88;;
43938;Laerm;71382;47.750;10.226;2023-10-31T07:51:40;48.22;40.03;62.35;;
43938;Laerm;71382;47.750;10.226;2023-10-31T07:54:05;47.63;40.60;56.24;;
43938;Laerm;71382;47.750;10.226;2023-10-31T07:56:31;46.31;39.94;59.93;;
43938;Laerm;71382;47.750;10.226;2023-10-31T07:58:58;48.03;40.13;56.60;;
43938;Laerm;71382;47.750;10.226;2023-10-31T08:01:23;45.84;39.23;51.19;;
43938;Laerm;71382;47.750;10.226;2023-10-31T08:03:49;47.93;40.23;64.89;;
43938;Laerm;71382;47.750;10.226;2023-10-31T08:06:14;48.28;40.15;57.92;;
43938;Laerm;71382;47.750;10.226;2023-10-31T08:08:40;46.52;40.31;58.12;;
43938;Laerm;71382;47.750;10.226;2023-10-31T08:11:09;46.47;39.63;57.19;;
43938;Laerm;71382;47.750;10.226;2023-10-31T08:13:35;46.39;40.31;59.90;;
43938;Laerm;71382;47.750;10.226;2023-10-31T08:16:01;46.73;39.36;57.26;;
43938;Laerm;71382;47.750;10.226;2023-10-31T08:18:26;46.24;39.55;52.91;;
43938;Laerm;71382;47.750;10.226;2023-10-31T08:20:52;48.34;39.85;63.24;;
43938;Laerm;71382;47.750;10.226;2023-10-31T08:23:17;48.94;40.77;62.45;;
43938;Laerm;71382;47.750;10.226;2023-10-31T08:25:43;48.75;41.50;63.41;;
43938;Laerm;71382;47.750;10.226;2023-10-31T08:28:08;49.60;41.62;60.31;;
43938;Laerm;71382;47.750;10.226;2023-10-31T08:30:34;47.77;41.88;60.55;;
43938;Laerm;71382;47.750;10.226;2023-10-31T08:33:00;49.82;42.12;68.60;;
43938;Laerm;71382;47.750;10.226;2023-10-31T08:35:25;54.54;40.16;78.93;;
43938;Laerm;71382;47.750;10.226;2023-10-31T08:37:51;51.32;43.13;63.39;;
43938;Laerm;71382;47.750;10.226;2023-10-31T08:40:17;47.54;41.61;57.98;;
43938;Laerm;71382;47.750;10.226;2023-10-31T08:42:43;50.34;43.16;65.02;;
43938;Laerm;71382;47.750;10.226;2023-10-31T08:45:08;51.47;43.40;64.75;;
43938;Laerm;71382;47.750;10.226;2023-10-31T08:47:34;51.41;41.25;62.96;;
43938;Laerm;71382;47.750;10.226;2023-10-31T08:50:00;51.30;42.19;67.80;;
43938;Laerm;71382;47.750;10.226;2023-10-31T08:52:25;49.17;41.19;66.41;;
43938;Laerm;71382;47.750;10.226;2023-10-31T08:54:51;50.57;41.73;69.61;;
43938;Laerm;71382;47.750;10.226;2023-10-31T08:57:16;49.37;42.48;58.57;;
43938;Laerm;71382;47.750;10.226;2023-10-31T08:59:42;47.21;41.72;51.91;;
43938;Laerm;71382;47.750;10.226;2023-10-31T09:02:08;50.46;42.09;68.44;;
43938;Laerm;71382;47.750;10.226;2023-10-31T09:04:33;47.09;41.00;58.50;;
43938;Laerm;71382;47.750;10.226;2023-10-31T09:07:00;48.71;40.65;62.65;;
43938;Laerm;71382;47.750;10.226;2023-10-31T09:09:25;51.28;41.67;66.38;;
43938;Laerm;71382;47.750;10.226;2023-10-31T09:11:51;50.18;42.64;61.86;;
43938;Laerm;71382;47.750;10.226;2023-10-31T09:14:16;52.65;42.04;64.07;;
43938;Laerm;71382;47.750;10.226;2023-10-31T09:16:42;52.03;42.72;63.62;;
43938;Laerm;71382;47.750;10.226;2023-10-31T09:19:07;46.52;41.68;58.97;;
43938;Laerm;71382;47.750;10.226;2023-10-31T09:21:33;49.99;41.36;64.76;;
43938;Laerm;71382;47.750;10.226;2023-10-31T09:23:58;53.02;41.44;69.31;;
43938;Laerm;71382;47.750;10.226;2023-10-31T09:26:24;52.07;41.17;69.55;;
43938;Laerm;71382;47.750;10.226;2023-10-31T09:28:49;49.14;41.47;60.45;;
43938;Laerm;71382;47.750;10.226;2023-10-31T09:31:16;51.97;41.90;70.55;;
43938;Laerm;71382;47.750;10.226;2023-10-31T09:33:42;50.48;41.29;73.63;;
43938;Laerm;71382;47.750;10.226;2023-10-31T09:36:07;49.16;42.36;62.74;;
43938;Laerm;71382;47.750;10.226;2023-10-31T09:38:33;55.45;43.59;76.20;;
43938;Laerm;71382;47.750;10.226;2023-10-31T09:40:58;50.47;42.89;60.20;;
43938;Laerm;71382;47.750;10.226;2023-10-31T09:43:24;53.13;43.70;67.34;;
43938;Laerm;71382;47.750;10.226;2023-10-31T09:45:49;52.07;43.69;66.09;;
43938;Laerm;71382;47.750;10.226;2023-10-31T09:48:15;54.60;43.62;67.31;;
43938;Laerm;71382;47.750;10.226;2023-10-31T09:50:41;56.12;42.41;75.05;;
43938;Laerm;71382;47.750;10.226;2023-10-31T09:53:06;48.74;42.38;62.43;;
43938;Laerm;71382;47.750;10.226;2023-10-31T09:55:32;51.82;43.45;68.01;;
43938;Laerm;71382;47.750;10.226;2023-10-31T09:57:58;58.33;41.60;82.49;;
43938;Laerm;71382;47.750;10.226;2023-10-31T10:00:24;49.51;40.57;60.26;;
43938;Laerm;71382;47.750;10.226;2023-10-31T10:02:49;49.02;41.55;65.26;;
43938;Laerm;71382;47.750;10.226;2023-10-31T10:05:15;52.23;42.60;64.76;;
43938;Laerm;71382;47.750;10.226;2023-10-31T10:07:41;46.87;39.09;66.22;;
43938;Laerm;71382;47.750;10.226;2023-10-31T10:10:12;52.84;39.39;68.72;;
43938;Laerm;71382;47.750;10.226;2023-10-31T10:12:37;43.30;38.66;51.82;;
43938;Laerm;71382;47.750;10.226;2023-10-31T10:15:03;48.55;40.35;61.01;;
43938;Laerm;71382;47.750;10.226;2023-10-31T10:17:29;48.41;38.96;61.12;;
43938;Laerm;71382;47.750;10.226;2023-10-31T10:20:07;45.74;38.44;62.71;;
43938;Laerm;71382;47.750;10.226;2023-10-31T10:22:39;48.17;39.28;63.82;;
43938;Laerm;71382;47.750;10.226;2023-10-31T10:25:08;49.20;40.15;68.25;;
43938;Laerm;71382;47.750;10.226;2023-10-31T10:27:33;48.63;40.38;62.83;;
43938;Laerm;71382;47.750;10.226;2023-10-31T10:29:59;47.93;38.14;70.23;;
43938;Laerm;71382;47.750;10.226;2023-10-31T10:32:25;43.79;37.67;62.73;;
43938;Laerm;71382;47.750;10.226;2023-10-31T10:34:50;42.74;38.42;53.74;;
43938;Laerm;71382;47.750;10.226;2023-10-31T10:37:15;45.24;38.33;61.60;;
43938;Laerm;71382;47.750;10.226;2023-10-31T10:39:44;58.37;39.91;81.93;;
43938;Laerm;71382;47.750;10.226;2023-10-31T10:42:13;51.80;38.74;68.56;;
43938;Laerm;71382;47.750;10.226;2023-10-31T10:44:41;48.77;41.33;61.71;;
43938;Laerm;71382;47.750;10.226;2023-10-31T10:47:08;48.60;41.69;59.55;;
43938;Laerm;71382;47.750;10.226;2023-10-31T10:49:37;51.16;41.85;68.69;;
43938;Laerm;71382;47.750;10.226;2023-10-31T10:52:22;50.71;41.31;66.96;;
43938;Laerm;71382;47.750;10.226;2023-10-31T10:57:55;50.76;40.54;66.55;;
43938;Laerm;71382;47.750;10.226;2023-10-31T11:00:21;47.68;40.62;59.84;;
43938;Laerm;71382;47.750;10.226;2023-10-31T11:02:51;50.13;42.26;59.09;;
43938;Laerm;71382;47.750;10.226;2023-10-31T11:05:17;47.87;40.23;56.07;;
43938;Laerm;71382;47.750;10.226;2023-10-31T11:07:43;47.94;40.47;57.98;;
43938;Laerm;71382;47.750;10.226;2023-10-31T11:10:09;51.63;40.11;73.82;;
43938;Laerm;71382;47.750;10.226;2023-10-31T11:12:35;47.05;41.31;55.26;;
43938;Laerm;71382;47.750;10.226;2023-10-31T11:15:02;46.32;40.17;60.24;;
43938;Laerm;71382;47.750;10.226;2023-10-31T11:17:35;51.25;41.08;65.67;;
43938;Laerm;71382;47.750;10.226;2023-10-31T11:20:02;45.94;39.49;53.79;;
43938;Laerm;71382;47.750;10.226;2023-10-31T11:22:41;48.46;40.85;57.40;;
43938;Laerm;71382;47.750;10.226;2023-10-31T11:25:09;49.10;40.61;63.14;;
43938;Laerm;71382;47.750;10.226;2023-10-31T11:27:35;50.71;40.16;64.82;;
43938;Laerm;71382;47.750;10.226;2023-10-31T11:30:15;47.46;40.54;58.77;;
43938;Laerm;71382;47.750;10.226;2023-10-31T11:32:48;46.71;39.86;54.53;;
43938;Laerm;71382;47.750;10.226;2023-10-31T11:35:16;45.88;40.22;55.48;;
43938;Laerm;71382;47.750;10.226;2023-10-31T11:37:41;46.97;40.08;55.56;;
43938;Laerm;71382;47.750;10.226;2023-10-31T11:42:40;46.14;40.79;57.33;;
43938;Laerm;71382;47.750;10.226;2023-10-31T11:45:09;48.47;41.06;68.11;;
43938;Laerm;71382;47.750;10.226;2023-10-31T11:50:13;47.58;41.81;57.36;;
43938;Laerm;71382;47.750;10.226;2023-10-31T11:52:38;51.52;42.50;71.70;;
43938;Laerm;71382;47.750;10.226;2023-10-31T11:55:05;51.64;42.75;60.11;;
43938;Laerm;71382;47.750;10.226;2023-10-31T11:57:33;49.11;42.79;64.41;;
43938;Laerm;71382;47.750;10.226;2023-10-31T11:59:59;51.83;43.38;61.74;;
43938;Laerm;71382;47.750;10.226;2023-10-31T12:02:25;50.71;43.14;58.89;;
43938;Laerm;71382;47.750;10.226;2023-10-31T12:04:50;50.48;43.69;61.13;;
43938;Laerm;71382;47.750;10.226;2023-10-31T12:07:18;50.92;44.97;62.49;;
43938;Laerm;71382;47.750;10.226;2023-10-31T12:09:46;52.97;45.54;64.98;;
43938;Laerm;71382;47.750;10.226;2023-10-31T12:12:12;50.17;44.68;64.62;;
43938;Laerm;71382;47.750;10.226;2023-10-31T12:14:38;49.53;43.20;60.81;;
43938;Laerm;71382;47.750;10.226;2023-10-31T12:17:04;49.05;42.33;62.53;;
43938;Laerm;71382;47.750;10.226;2023-10-31T12:19:30;47.65;42.12;59.69;;
43938;Laerm;71382;47.750;10.226;2023-10-31T12:21:55;47.52;41.99;53.58;;
43938;Laerm;71382;47.750;10.226;2023-10-31T12:24:22;48.85;41.72;61.63;;
43938;Laerm;71382;47.750;10.226;2023-10-31T12:26:47;48.11;41.37;59.45;;
43938;Laerm;71382;47.750;10.226;2023-10-31T12:29:14;50.20;42.96;66.72;;
43938;Laerm;71382;47.750;10.226;2023-10-31T12:31:47;50.86;43.18;66.86;;
43938;Laerm;71382;47.750;10.226;2023-10-31T12:34:16;48.02;42.18;58.83;;
43938;Laerm;71382;47.750;10.226;2023-10-31T12:36:42;48.58;40.45;62.07;;
43938;Laerm;71382;47.750;10.226;2023-10-31T12:39:10;53.34;43.10;66.21;;
43938;Laerm;71382;47.750;10.226;2023-10-31T12:41:37;48.64;42.05;60.78;;
43938;Laerm;71382;47.750;10.226;2023-10-31T12:44:02;52.28;41.85;65.17;;
43938;Laerm;71382;47.750;10.226;2023-10-31T12:46:30;49.93;41.69;65.03;;
43938;Laerm;71382;47.750;10.226;2023-10-31T12:48:56;49.87;41.29;63.32;;
43938;Laerm;71382;47.750;10.226;2023-10-31T12:51:22;49.09;41.07;69.25;;
43938;Laerm;71382;47.750;10.226;2023-10-31T12:53:48;50.93;41.55;62.44;;
43938;Laerm;71382;47.750;10.226;2023-10-31T12:56:34;49.45;41.80;67.12;;
43938;Laerm;71382;47.750;10.226;2023-10-31T12:58:59;49.44;41.63;57.53;;
43938;Laerm;71382;47.750;10.226;2023-10-31T13:01:25;47.60;41.54;58.73;;
43938;Laerm;71382;47.750;10.226;2023-10-31T13:03:51;50.91;40.39;66.58;;
43938;Laerm;71382;47.750;10.226;2023-10-31T13:06:17;47.55;40.66;64.45;;
43938;Laerm;71382;47.750;10.226;2023-10-31T13:08:45;46.33;40.62;61.38;;
43938;Laerm;71382;47.750;10.226;2023-10-31T13:11:11;46.87;40.08;69.27;;
43938;Laerm;71382;47.750;10.226;2023-10-31T13:13:36;49.32;39.73;61.83;;
43938;Laerm;71382;47.750;10.226;2023-10-31T13:16:02;47.66;40.49;61.29;;
43938;Laerm;71382;47.750;10.226;2023-10-31T13:18:28;50.52;41.82;68.86;;
43938;Laerm;71382;47.750;10.226;2023-10-31T13:20:53;49.60;43.27;64.58;;
43938;Laerm;71382;47.750;10.226;2023-10-31T13:23:19;47.27;42.66;56.82;;
43938;Laerm;71382;47.750;10.226;2023-10-31T13:25:45;48.05;42.50;63.06;;
43938;Laerm;71382;47.750;10.226;2023-10-31T13:28:11;50.44;42.94;63.62;;
43938;Laerm;71382;47.750;10.226;2023-10-31T13:30:37;45.87;40.19;53.33;;
43938;Laerm;71382;47.750;10.226;2023-10-31T13:33:03;46.94;39.93;54.54;;